createdAt,value
2018-12-23T00:01:43.353Z,15.63
2018-12-23T00:04:12.595Z,17.23
2018-12-23T00:06:42.661Z,17.97
2018-12-23T00:09:12.011Z,16.47
2018-12-23T00:11:43.683Z,15.57
2018-12-23T00:14:12.919Z,16.10
2018-12-23T00:16:43.015Z,15.93
2018-12-23T00:19:13.549Z,16.93
2018-12-23T00:21:44.025Z,19.73
2018-12-23T00:24:14.520Z,18.60
2018-12-23T00:26:44.187Z,18.77
2018-12-23T00:29:14.697Z,17.77
2018-12-23T00:32:35.066Z,19.30
2018-12-23T00:38:02.793Z,21.93
2018-12-23T00:40:34.200Z,20.90
2018-12-23T00:43:06.585Z,20.10
2018-12-23T00:45:35.854Z,22.37
2018-12-23T00:48:05.163Z,19.63
2018-12-23T00:50:54.061Z,18.57
2018-12-23T00:53:44.063Z,23.40
2018-12-23T00:56:16.479Z,22.53
2018-12-23T00:58:46.093Z,21.00
2018-12-23T01:05:55.115Z,22.93
2018-12-23T01:08:25.971Z,23.23
2018-12-23T01:10:57.803Z,20.63
2018-12-23T01:13:35.759Z,21.57
2018-12-23T01:16:13.984Z,20.57
2018-12-23T01:18:46.539Z,22.80
2018-12-23T01:21:18.082Z,22.70
2018-12-23T01:23:51.967Z,22.37
2018-12-23T01:26:22.873Z,20.53
2018-12-23T01:28:54.073Z,23.00
2018-12-23T01:31:25.021Z,19.93
2018-12-23T01:34:36.989Z,23.70
2018-12-23T01:37:03.708Z,20.03
2018-12-23T01:39:38.212Z,19.80
2018-12-23T01:42:09.128Z,23.20
2018-12-23T01:44:40.736Z,20.90
2018-12-23T01:47:11.809Z,21.37
2018-12-23T01:49:42.899Z,17.53
2018-12-23T01:56:24.194Z,25.20
2018-12-23T01:59:10.538Z,20.57
2018-12-23T02:01:50.032Z,17.80
2018-12-23T02:04:57.499Z,19.23
2018-12-23T02:07:28.387Z,18.27
2018-12-23T02:09:59.381Z,18.93
2018-12-23T02:12:29.870Z,18.43
2018-12-23T02:15:00.518Z,18.63
2018-12-23T02:17:31.256Z,18.13
2018-12-23T02:20:01.895Z,19.60
2018-12-23T02:22:32.518Z,18.63
2018-12-23T02:25:03.295Z,18.30
2018-12-23T02:27:34.168Z,17.60
2018-12-23T02:30:04.932Z,18.60
2018-12-23T02:32:35.568Z,17.97
2018-12-23T02:35:06.305Z,17.07
2018-12-23T02:37:37.513Z,17.70
2018-12-23T02:40:08.164Z,17.13
2018-12-23T02:42:38.780Z,17.50
2018-12-23T02:45:09.492Z,16.60
2018-12-23T02:47:40.110Z,17.97
2018-12-23T02:50:11.048Z,17.13
2018-12-23T02:52:41.870Z,21.33
2018-12-23T02:55:12.672Z,19.80
2018-12-23T02:57:43.560Z,17.03
2018-12-23T03:00:14.399Z,18.23
2018-12-23T03:02:45.688Z,17.30
2018-12-23T03:05:17.295Z,19.07
2018-12-23T03:07:48.466Z,15.20
2018-12-23T03:10:19.680Z,16.30
2018-12-23T03:12:50.496Z,17.73
2018-12-23T03:15:20.937Z,16.63
2018-12-23T03:17:51.527Z,17.40
2018-12-23T03:20:22.313Z,18.23
2018-12-23T03:22:52.906Z,16.67
2018-12-23T03:25:23.465Z,16.07
2018-12-23T03:27:54.000Z,15.30
2018-12-23T03:30:24.879Z,18.60
2018-12-23T03:32:55.373Z,16.33
2018-12-23T03:35:25.963Z,16.57
2018-12-23T03:37:56.403Z,16.47
2018-12-23T03:40:27.215Z,16.77
2018-12-23T03:42:57.866Z,16.57
2018-12-23T03:45:28.281Z,16.60
2018-12-23T03:47:58.795Z,15.70
2018-12-23T03:50:29.284Z,16.80
2018-12-23T03:53:00.021Z,15.73
2018-12-23T03:55:30.571Z,14.70
2018-12-23T03:58:01.131Z,13.80
2018-12-23T04:00:31.790Z,16.47
2018-12-23T04:03:02.441Z,16.47
2018-12-23T04:05:36.053Z,16.70
2018-12-23T04:08:06.745Z,14.50
2018-12-23T04:10:37.275Z,14.40
2018-12-23T04:13:07.760Z,17.03
2018-12-23T04:15:38.493Z,15.23
2018-12-23T04:18:09.481Z,15.43
2018-12-23T04:20:40.192Z,15.37
2018-12-23T04:23:10.792Z,15.10
2018-12-23T04:25:41.265Z,15.90
2018-12-23T04:28:11.940Z,16.40
2018-12-23T04:30:42.544Z,15.67
2018-12-23T04:33:13.116Z,16.00
2018-12-23T04:35:43.654Z,18.07
2018-12-23T04:38:14.159Z,16.30
2018-12-23T04:40:45.544Z,16.60
2018-12-23T04:43:16.144Z,16.97
2018-12-23T04:45:46.968Z,15.87
2018-12-23T04:48:17.736Z,15.77
2018-12-23T04:50:48.513Z,15.00
2018-12-23T04:53:19.268Z,16.17
2018-12-23T04:55:49.737Z,17.60
2018-12-23T04:58:20.592Z,17.63
2018-12-23T05:00:52.189Z,16.63
2018-12-23T05:03:24.264Z,16.13
2018-12-23T05:05:54.969Z,15.80
2018-12-23T05:08:25.524Z,15.57
2018-12-23T05:10:56.078Z,17.30
2018-12-23T05:13:26.602Z,15.83
2018-12-23T05:15:57.052Z,15.70
2018-12-23T05:18:27.545Z,14.77
2018-12-23T05:20:57.987Z,14.80
2018-12-23T05:23:28.627Z,14.57
2018-12-23T05:25:59.130Z,14.57
2018-12-23T05:28:29.692Z,13.77
2018-12-23T05:31:00.244Z,13.37
2018-12-23T05:33:30.679Z,13.93
2018-12-23T05:36:01.134Z,11.50
2018-12-23T05:38:31.718Z,10.50
2018-12-23T05:41:02.169Z,7.57
2018-12-23T05:43:32.697Z,4.77
2018-12-23T05:46:03.144Z,4.80
2018-12-23T05:48:33.706Z,6.03
2018-12-23T05:51:04.321Z,6.43
2018-12-23T05:53:34.822Z,6.67
2018-12-23T05:56:05.482Z,9.37
2018-12-23T05:58:36.010Z,8.60
2018-12-23T06:01:06.573Z,9.57
2018-12-23T06:03:37.093Z,12.23
2018-12-23T06:06:07.612Z,11.13
2018-12-23T06:08:38.031Z,10.37
2018-12-23T06:11:08.755Z,10.20
2018-12-23T06:13:39.349Z,10.60
2018-12-23T06:16:09.800Z,12.10
2018-12-23T06:18:40.362Z,11.40
2018-12-23T06:21:10.793Z,11.60
2018-12-23T06:23:41.562Z,11.80
2018-12-23T06:26:12.016Z,12.53
2018-12-23T06:28:42.462Z,11.27
2018-12-23T06:31:12.860Z,12.60
2018-12-23T06:33:43.294Z,10.40
2018-12-23T06:36:13.826Z,12.50
2018-12-23T06:38:44.330Z,11.97
2018-12-23T06:41:14.878Z,10.20
2018-12-23T06:43:45.410Z,10.60
2018-12-23T06:46:15.934Z,10.33
2018-12-23T06:48:46.880Z,10.63
2018-12-23T06:51:17.490Z,10.63
2018-12-23T06:53:47.896Z,12.07
2018-12-23T06:56:20.000Z,10.20
2018-12-23T06:58:50.437Z,11.50
2018-12-23T07:01:20.902Z,9.90
2018-12-23T07:03:52.594Z,10.20
2018-12-23T07:06:23.240Z,9.80
2018-12-23T07:08:53.724Z,11.13
2018-12-23T07:11:24.225Z,9.13
2018-12-23T07:13:55.198Z,9.30
2018-12-23T07:16:25.546Z,8.93
2018-12-23T07:18:56.473Z,9.27
2018-12-23T07:21:27.620Z,8.67
2018-12-23T07:23:58.196Z,8.40
2018-12-23T07:26:28.594Z,10.40
2018-12-23T07:28:59.125Z,8.13
2018-12-23T07:31:29.683Z,8.90
2018-12-23T07:34:00.220Z,8.77
2018-12-23T07:36:30.639Z,8.00
2018-12-23T07:39:01.261Z,8.93
2018-12-23T07:41:31.761Z,9.70
2018-12-23T07:44:02.248Z,9.97
2018-12-23T07:46:32.689Z,8.07
2018-12-23T07:49:03.140Z,9.40
2018-12-23T07:51:33.761Z,10.27
2018-12-23T07:54:04.317Z,8.47
2018-12-23T07:56:34.732Z,9.17
2018-12-23T07:59:09.668Z,10.80
2018-12-23T08:01:42.674Z,9.73
2018-12-23T08:04:13.268Z,10.60
2018-12-23T08:06:43.878Z,9.97
2018-12-23T08:09:14.264Z,10.33
2018-12-23T08:11:47.680Z,9.63
2018-12-23T08:14:18.131Z,10.33
2018-12-23T08:16:48.658Z,9.50
2018-12-23T08:19:19.136Z,9.90
2018-12-23T08:21:51.720Z,10.57
2018-12-23T08:24:22.086Z,10.93
2018-12-23T08:26:52.567Z,11.07
2018-12-23T08:29:23.214Z,11.37
2018-12-23T08:31:54.295Z,9.00
2018-12-23T08:34:25.074Z,9.63
2018-12-23T08:36:55.626Z,9.00
2018-12-23T08:39:26.359Z,9.07
2018-12-23T08:41:58.852Z,8.37
2018-12-23T08:44:29.313Z,8.50
2018-12-23T08:47:00.180Z,10.57
2018-12-23T08:49:30.764Z,10.40
2018-12-23T08:52:01.630Z,8.90
2018-12-23T08:54:34.985Z,10.60
2018-12-23T08:57:05.485Z,10.90
2018-12-23T08:59:36.225Z,10.87
2018-12-23T09:02:06.859Z,9.90
2018-12-23T09:04:37.333Z,9.97
2018-12-23T09:07:07.939Z,10.17
2018-12-23T09:09:38.428Z,10.23
2018-12-23T09:12:09.737Z,11.30
2018-12-23T09:14:40.297Z,10.53
2018-12-23T09:17:10.773Z,10.03
2018-12-23T09:19:41.346Z,11.37
2018-12-23T09:22:11.935Z,10.70
2018-12-23T09:24:42.737Z,10.23
2018-12-23T09:27:13.190Z,9.10
2018-12-23T09:29:44.316Z,9.07
2018-12-23T09:32:14.765Z,9.50
2018-12-23T09:34:45.199Z,10.20
2018-12-23T09:37:15.643Z,11.13
2018-12-23T09:39:46.163Z,9.10
2018-12-23T09:42:16.635Z,11.20
2018-12-23T09:44:47.148Z,9.00
2018-12-23T09:47:24.983Z,9.70
2018-12-23T09:49:55.191Z,8.87
2018-12-23T09:52:28.235Z,10.30
2018-12-23T09:54:58.656Z,10.23
2018-12-23T09:57:29.100Z,10.13
2018-12-23T09:59:59.535Z,11.27
2018-12-23T10:02:30.823Z,11.60
2018-12-23T10:05:01.673Z,11.77
2018-12-23T10:07:32.458Z,10.60
2018-12-23T10:10:11.248Z,10.90
2018-12-23T10:12:42.209Z,11.10
2018-12-23T10:18:34.363Z,9.90
2018-12-23T10:21:04.945Z,11.10
2018-12-23T10:23:35.448Z,10.63
2018-12-23T10:26:05.940Z,10.17
2018-12-23T10:28:36.379Z,9.83
2018-12-23T10:31:06.874Z,13.10
2018-12-23T10:33:39.932Z,9.20
2018-12-23T10:36:10.346Z,11.10
2018-12-23T10:38:40.763Z,12.03
2018-12-23T10:41:11.209Z,12.10
2018-12-23T10:43:41.636Z,12.10
2018-12-23T10:46:12.142Z,11.73
2018-12-23T10:48:42.578Z,10.83
2018-12-23T10:51:13.108Z,11.07
2018-12-23T10:53:43.589Z,8.70
2018-12-23T10:56:14.090Z,10.87
2018-12-23T10:58:44.512Z,10.47
2018-12-23T11:01:14.969Z,11.00
2018-12-23T11:03:45.549Z,12.37
2018-12-23T11:06:16.904Z,11.30
2018-12-23T11:08:50.616Z,11.93
2018-12-23T11:11:23.608Z,11.97
2018-12-23T11:14:52.680Z,11.40
2018-12-23T11:17:39.532Z,9.37
2018-12-23T11:20:11.487Z,10.17
2018-12-23T11:23:12.058Z,8.93
2018-12-23T11:26:28.610Z,8.70
2018-12-23T11:29:35.748Z,9.90
2018-12-23T11:32:10.725Z,11.40
2018-12-23T11:35:09.288Z,12.00
2018-12-23T11:37:41.697Z,12.20
2018-12-23T11:40:12.250Z,11.73
2018-12-23T11:42:44.718Z,9.97
2018-12-23T11:45:27.861Z,9.37
2018-12-23T11:48:30.401Z,7.97
2018-12-23T11:51:01.558Z,8.80
2018-12-23T11:53:33.757Z,8.00
2018-12-23T11:56:04.843Z,7.70
2018-12-23T11:58:36.080Z,8.73
2018-12-23T12:01:06.575Z,8.27
2018-12-23T12:03:37.193Z,7.80
2018-12-23T12:06:07.603Z,7.90
2018-12-23T12:08:43.758Z,8.93
2018-12-23T12:11:12.686Z,11.90
2018-12-23T12:13:43.175Z,11.23
2018-12-23T12:16:13.702Z,8.83
2018-12-23T12:18:44.188Z,7.17
2018-12-23T12:21:14.647Z,7.20
2018-12-23T12:23:45.075Z,7.47
2018-12-23T12:26:15.601Z,7.57
2018-12-23T12:28:46.024Z,7.47
2018-12-23T12:31:17.616Z,8.33
2018-12-23T12:33:48.107Z,7.23
2018-12-23T12:36:18.630Z,7.63
2018-12-23T12:38:52.235Z,6.83
2018-12-23T12:41:21.548Z,8.07
2018-12-23T12:43:52.018Z,8.40
2018-12-23T12:46:24.549Z,8.63
2018-12-23T12:48:55.143Z,9.10
2018-12-23T12:51:26.182Z,6.73
2018-12-23T12:53:56.837Z,7.77
2018-12-23T12:56:27.275Z,8.67
2018-12-23T12:58:57.751Z,7.03
2018-12-23T13:01:28.277Z,7.03
2018-12-23T13:03:59.065Z,7.43
2018-12-23T13:06:29.868Z,7.40
2018-12-23T13:09:00.922Z,6.57
2018-12-23T13:11:31.678Z,8.23
2018-12-23T13:14:02.484Z,8.70
2018-12-23T13:16:34.663Z,8.03
2018-12-23T13:19:05.310Z,8.20
2018-12-23T13:21:36.257Z,7.77
2018-12-23T13:24:07.113Z,9.13
2018-12-23T13:26:37.782Z,8.93
2018-12-23T13:29:08.387Z,7.90
2018-12-23T13:31:39.152Z,7.57
2018-12-23T13:34:09.821Z,8.40
2018-12-23T13:36:40.553Z,5.97
2018-12-23T13:39:12.690Z,6.57
2018-12-23T13:42:22.365Z,5.60
2018-12-23T13:45:36.197Z,5.33
2018-12-23T13:48:35.977Z,5.57
2018-12-23T13:52:02.059Z,7.13
2018-12-23T13:55:12.964Z,6.83
2018-12-23T13:58:30.921Z,7.80
2018-12-23T14:01:52.070Z,8.23
2018-12-23T14:05:26.083Z,8.37
2018-12-23T14:08:53.455Z,8.37
2018-12-23T14:11:57.643Z,9.23
2018-12-23T14:14:28.205Z,8.50
2018-12-23T14:17:03.108Z,8.27
2018-12-23T14:19:45.027Z,7.90
2018-12-23T14:22:32.121Z,6.50
2018-12-23T14:25:04.921Z,10.30
2018-12-23T14:27:41.262Z,7.30
2018-12-23T14:30:14.120Z,6.50
2018-12-23T14:32:44.991Z,6.07
2018-12-23T14:35:15.892Z,6.30
2018-12-23T14:37:46.457Z,5.20
2018-12-23T14:40:17.070Z,5.90
2018-12-23T14:42:47.828Z,5.83
2018-12-23T14:45:18.422Z,6.33
2018-12-23T14:47:48.974Z,6.50
2018-12-23T14:50:20.112Z,6.33
2018-12-23T14:52:50.884Z,6.30
2018-12-23T14:55:22.053Z,8.63
2018-12-23T14:57:52.804Z,7.70
2018-12-23T15:00:25.680Z,5.57
2018-12-23T15:02:56.121Z,7.00
2018-12-23T15:05:33.907Z,7.43
2018-12-23T15:08:04.605Z,7.43
2018-12-23T15:10:35.034Z,6.20
2018-12-23T15:13:05.538Z,7.83
2018-12-23T15:15:35.996Z,7.60
2018-12-23T15:18:06.511Z,8.00
2018-12-23T15:20:37.003Z,8.30
2018-12-23T15:23:10.817Z,7.80
2018-12-23T15:25:39.682Z,9.17
2018-12-23T15:28:10.112Z,9.67
2018-12-23T15:30:40.742Z,9.07
2018-12-23T15:33:11.945Z,10.10
2018-12-23T15:35:50.922Z,10.10
2018-12-23T15:38:21.405Z,11.70
2018-12-23T15:40:51.902Z,11.07
2018-12-23T15:43:22.383Z,11.00
2018-12-23T15:45:53.179Z,12.70
2018-12-23T15:48:23.916Z,12.77
2018-12-23T15:50:54.426Z,13.80
2018-12-23T15:53:26.727Z,13.50
2018-12-23T15:55:57.414Z,12.37
2018-12-23T15:58:27.992Z,13.37
2018-12-23T16:00:58.773Z,12.57
2018-12-23T16:03:29.477Z,13.23
2018-12-23T16:06:00.087Z,11.40
2018-12-23T16:08:30.858Z,12.70
2018-12-23T16:11:01.514Z,12.73
2018-12-23T16:13:32.166Z,12.80
2018-12-23T16:16:02.717Z,12.97
2018-12-23T16:18:34.281Z,13.33
2018-12-23T16:21:05.106Z,13.20
2018-12-23T16:23:38.242Z,13.30
2018-12-23T16:26:11.265Z,15.10
2018-12-23T16:28:41.861Z,14.23
2018-12-23T16:31:14.905Z,13.00
2018-12-23T16:33:45.509Z,13.10
2018-12-23T16:36:16.421Z,12.47
2018-12-23T16:38:46.969Z,13.60
2018-12-23T16:41:17.479Z,14.87
2018-12-23T16:43:48.095Z,13.47
2018-12-23T16:46:18.711Z,13.50
2018-12-23T16:48:49.120Z,13.57
2018-12-23T16:51:19.726Z,12.93
2018-12-23T16:53:50.180Z,13.70
2018-12-23T16:56:20.671Z,12.90
2018-12-23T16:58:51.129Z,13.07
2018-12-23T17:01:21.655Z,13.80
2018-12-23T17:03:53.387Z,13.00
2018-12-23T17:06:25.901Z,12.77
2018-12-23T17:08:56.354Z,13.47
2018-12-23T17:11:26.864Z,11.77
2018-12-23T17:13:57.310Z,14.80
2018-12-23T17:16:31.054Z,13.07
2018-12-23T17:19:01.505Z,12.00
2018-12-23T17:21:32.007Z,11.93
2018-12-23T17:24:02.673Z,11.83
2018-12-23T17:26:33.143Z,12.50
2018-12-23T17:29:05.442Z,11.77
2018-12-23T17:31:38.694Z,13.90
2018-12-23T17:34:09.443Z,12.23
2018-12-23T17:36:40.060Z,14.43
2018-12-23T17:39:10.605Z,13.03
2018-12-23T17:41:52.959Z,14.13
2018-12-23T17:44:23.937Z,12.53
2018-12-23T17:46:59.797Z,13.67
2018-12-23T17:49:33.371Z,12.30
2018-12-23T17:52:05.881Z,10.10
2018-12-23T17:54:39.572Z,6.90
2018-12-23T17:57:17.063Z,8.83
2018-12-23T17:59:48.259Z,6.90
2018-12-23T18:02:19.326Z,4.97
2018-12-23T18:04:53.070Z,4.17
2018-12-23T18:07:24.371Z,5.70
2018-12-23T18:09:55.324Z,3.90
2018-12-23T18:12:28.096Z,3.83
2018-12-23T18:14:58.705Z,3.90
2018-12-23T18:17:29.264Z,4.10
2018-12-23T18:20:03.068Z,5.33
2018-12-23T18:22:33.536Z,3.70
2018-12-23T18:25:04.235Z,4.10
2018-12-23T18:27:34.838Z,4.40
2018-12-23T18:30:05.440Z,4.73
2018-12-23T18:32:36.023Z,5.67
2018-12-23T18:35:06.488Z,4.40
2018-12-23T18:37:37.287Z,4.73
2018-12-23T18:40:10.895Z,4.40
2018-12-23T18:42:42.076Z,4.50
2018-12-23T18:45:18.864Z,5.23
2018-12-23T18:47:49.620Z,6.20
2018-12-23T18:50:25.191Z,5.87
2018-12-23T18:52:59.493Z,5.20
2018-12-23T18:55:39.937Z,5.13
2018-12-23T18:58:21.067Z,6.43
2018-12-23T19:01:01.836Z,4.60
2018-12-23T19:03:38.693Z,5.23
2018-12-23T19:06:12.623Z,5.40
2018-12-23T19:09:28.013Z,5.30
2018-12-23T19:13:02.616Z,7.20
2018-12-23T19:16:26.934Z,5.40
2018-12-23T19:19:47.545Z,4.80
2018-12-23T19:22:48.971Z,4.90
2018-12-23T19:26:21.883Z,4.77
2018-12-23T19:29:52.090Z,5.73
2018-12-23T19:33:19.346Z,6.10
2018-12-23T19:37:13.303Z,5.97
2018-12-23T19:40:41.696Z,5.50
2018-12-23T19:43:58.280Z,4.93
2018-12-23T19:47:49.876Z,5.63
2018-12-23T19:51:18.323Z,4.50
2018-12-23T19:54:53.994Z,6.37
2018-12-23T19:58:27.086Z,6.17
2018-12-23T20:01:55.790Z,7.33
2018-12-23T20:05:28.762Z,6.50
2018-12-23T20:08:29.305Z,5.97
2018-12-23T20:12:11.472Z,5.63
2018-12-23T20:16:01.235Z,5.73
2018-12-23T20:19:23.148Z,6.60
2018-12-23T20:22:43.753Z,6.00
2018-12-23T21:18:33.367Z,12.73
2018-12-23T21:22:10.977Z,11.17
2018-12-23T21:25:35.783Z,11.80
2018-12-23T21:29:14.521Z,12.20
2018-12-23T21:32:34.853Z,12.50
2018-12-23T21:36:06.886Z,13.43
2018-12-23T21:39:33.864Z,12.93
2018-12-23T21:43:01.901Z,13.73
2018-12-23T21:50:27.932Z,12.23
2018-12-23T21:53:40.251Z,8.73
2018-12-23T21:57:09.767Z,11.87
2018-12-23T22:00:58.829Z,11.70
2018-12-23T22:04:23.562Z,11.47
2018-12-23T22:07:39.376Z,10.93
2018-12-23T22:11:02.833Z,10.00
2018-12-23T22:13:33.314Z,10.63
2018-12-23T22:16:03.969Z,10.47
2018-12-23T22:18:34.502Z,12.03
2018-12-23T22:21:05.191Z,8.83
2018-12-23T22:23:35.827Z,10.80
2018-12-23T22:26:10.684Z,9.00
2018-12-23T22:28:41.684Z,10.53
2018-12-23T22:31:16.258Z,9.70
2018-12-23T22:33:46.953Z,9.63
2018-12-23T22:36:18.184Z,8.90
2018-12-23T22:38:49.810Z,9.10
2018-12-23T22:41:29.280Z,11.23
2018-12-23T22:44:02.536Z,11.30
2018-12-23T22:46:33.337Z,11.37
2018-12-23T22:49:10.074Z,12.37
2018-12-23T22:51:43.930Z,13.50
2018-12-23T22:54:15.508Z,13.90
2018-12-23T22:56:47.262Z,15.93
2018-12-23T22:59:35.420Z,19.27
2018-12-23T23:02:07.700Z,16.30
2018-12-23T23:04:39.530Z,16.10
2018-12-23T23:07:10.836Z,15.50
2018-12-23T23:09:42.554Z,13.57
2018-12-23T23:12:14.390Z,15.43
2018-12-23T23:14:46.872Z,13.40
2018-12-23T23:17:17.969Z,9.90
2018-12-23T23:19:53.148Z,4.90
2018-12-23T23:22:26.574Z,4.33
2018-12-23T23:25:03.075Z,3.77
2018-12-23T23:27:41.062Z,3.57
2018-12-23T23:30:17.495Z,2.47
2018-12-23T23:33:03.098Z,2.33
2018-12-23T23:35:37.564Z,3.17
2018-12-23T23:38:11.629Z,2.90
2018-12-23T23:40:56.474Z,3.40
2018-12-23T23:43:29.573Z,3.80
2018-12-23T23:49:13.068Z,3.30
2018-12-23T23:51:44.196Z,3.80
2018-12-23T23:54:15.098Z,4.00
2018-12-23T23:56:45.736Z,4.70
2018-12-23T23:59:16.376Z,4.50
